Time;durP1;ratioP1;P1;durP2;ratioP2;P2;SDS_P1;SDS_P2;PMS_P1;PMS_P2;Temp;Humidity;BMP_temperature;BMP_pressure;BME280_temperature;BME280_humidity;BME280_pressure;Samples;Min_cycle;Max_cycle;Signal;HPM_P1;HPM_P2
2022/05/23 00:01:27;;;;;;;;;;;;;;;;;;5061477;28;19983;-74
2022/05/23 00:04:13;;;;;;;;;;;;;;;;;;5060184;28;20368;-74
2022/05/23 00:07:00;;;;;;;;;;;;;;;;;;5081267;28;19908;-74
2022/05/23 00:09:46;;;;;;;;;;;;;;;;;;5072071;28;19913;-74
2022/05/23 00:12:33;;;;;;;;;;;;;;;;;;5071866;28;19913;-75
2022/05/23 00:15:19;;;;;;;;;;;;;;;;;;5070147;28;19916;-74
2022/05/23 00:18:06;;;;;;;;;;;;;;;;;;5079047;28;19924;-74
2022/05/23 00:20:52;;;;;;;;;;;;;;;;;;5078313;28;19943;-74
2022/05/23 00:23:39;;;;;;;;;;;;;;;;;;5062419;28;19915;-73
2022/05/23 00:26:26;;;;;;;;;;;;;;;;;;5086271;28;19916;-74
2022/05/23 00:29:12;;;;;;;;;;;;;;;;;;5089281;28;19920;-74
2022/05/23 00:35:19;;;;;;;;;;;;;;;;;;5059238;28;19947;-74
2022/05/23 00:38:06;;;;;;;;;;;;;;;;;;5071831;28;19919;-73
2022/05/23 00:40:52;;;;;;;;;;;;;;;;;;5070986;28;19913;-73
2022/05/23 00:43:39;;;;;;;;;;;;;;;;;;5085148;28;20257;-74
2022/05/23 00:46:25;;;;;;;;;;;;;;;;;;5071619;28;19915;-73
2022/05/23 00:49:11;;;;;;;;;;;;;;;;;;5062511;28;19912;-74
2022/05/23 00:51:58;;;;;;;;;;;;;;;;;;5067064;28;20288;-73
2022/05/23 00:54:44;;;;;;;;;;;;;;;;;;5073296;28;19912;-74
2022/05/23 00:57:31;;;;;;;;;;;;;;;;;;5073155;28;19908;-74
2022/05/23 01:00:17;;;;;;;;;;;;;;;;;;5084843;28;19916;-73
2022/05/23 01:03:04;;;;;;;;;;;;;;;;;;5078122;28;19912;-74
2022/05/23 01:05:54;;;;;;;;;;;;;;;;;;5072114;28;20368;-73
2022/05/23 01:08:40;;;;;;;;;;;;;;;;;;5074867;28;19923;-75
2022/05/23 01:11:27;;;;;;;;;;;;;;;;;;5053060;28;19919;-73
2022/05/23 01:14:13;;;;;;;;;;;;;;;;;;5068818;28;20701;-74
2022/05/23 01:17:00;;;;;;;;;;;;;;;;;;5067035;28;19916;-74
2022/05/23 01:19:46;;;;;;;;;;;;;;;;;;5068257;28;19915;-75
2022/05/23 01:22:33;;;;;;;;;;;;;;;;;;5070485;28;19913;-74
2022/05/23 01:25:19;;;;;;;;;;;;;;;;;;5070753;28;19918;-75
2022/05/23 01:28:06;;;;;;;;;;;;;;;;;;5068054;28;19920;-75
2022/05/23 01:30:52;;;;;;;;;;;;;;;;;;5071371;28;20368;-76
2022/05/23 01:33:39;;;;;;;;;;;;;;;;;;5063847;28;19919;-75
2022/05/23 01:36:25;;;;;;;;;;;;;;;;;;5070295;28;20372;-73
2022/05/23 01:39:12;;;;;;;;;;;;;;;;;;5083778;28;19908;-75
2022/05/23 01:41:58;;;;;;;;;;;;;;;;;;5069906;28;20376;-75
2022/05/23 01:44:44;;;;;;;;;;;;;;;;;;5055320;28;19920;-73
2022/05/23 01:47:31;;;;;;;;;;;;;;;;;;5072675;28;19909;-73
2022/05/23 01:50:17;;;;;;;;;;;;;;;;;;5071708;28;19913;-74
2022/05/23 01:53:04;;;;;;;;;;;;;;;;;;5069039;28;19916;-73
2022/05/23 01:55:50;;;;;;;;;;;;;;;;;;5069704;28;20471;-74
2022/05/23 02:01:43;;;;;;;;;;;;;;;;;;5070895;28;19920;-74
2022/05/23 02:04:30;;;;;;;;;;;;;;;;;;5071927;28;19914;-73
2022/05/23 02:07:16;;;;;;;;;;;;;;;;;;5063725;28;19909;-74
2022/05/23 02:10:03;;;;;;;;;;;;;;;;;;5071645;28;19919;-74
2022/05/23 02:12:49;;;;;;;;;;;;;;;;;;5063339;28;19908;-74
2022/05/23 02:15:35;;;;;;;;;;;;;;;;;;5080509;28;19917;-72
2022/05/23 02:18:22;;;;;;;;;;;;;;;;;;5066097;28;20390;-73
2022/05/23 02:21:09;;;;;;;;;;;;;;;;;;5065503;28;19915;-73
2022/05/23 02:23:55;;;;;;;;;;;;;;;;;;5072224;28;19919;-73
2022/05/23 02:26:42;;;;;;;;;;;;;;;;;;5074810;28;19919;-73
2022/05/23 02:29:28;;;;;;;;;;;;;;;;;;5064705;28;19932;-73
2022/05/23 02:32:15;;;;;;;;;;;;;;;;;;5068057;28;19913;-73
2022/05/23 02:35:01;;;;;;;;;;;;;;;;;;5060594;28;20392;-73
2022/05/23 02:37:48;;;;;;;;;;;;;;;;;;5069497;28;19913;-73
2022/05/23 02:40:34;;;;;;;;;;;;;;;;;;5069437;28;19909;-73
2022/05/23 02:43:21;;;;;;;;;;;;;;;;;;5077188;28;19915;-73
2022/05/23 02:46:07;;;;;;;;;;;;;;;;;;5076519;28;19912;-74
2022/05/23 02:48:54;;;;;;;;;;;;;;;;;;5060567;28;19915;-73
2022/05/23 02:51:40;;;;;;;;;;;;;;;;;;5069270;28;19908;-74
2022/05/23 02:54:27;;;;;;;;;;;;;;;;;;5062662;28;19916;-73
2022/05/23 02:57:13;;;;;;;;;;;;;;;;;;5072181;28;19922;-73
2022/05/23 03:00:00;;;;;;;;;;;;;;;;;;5071568;28;19912;-73
2022/05/23 03:03:01;;;;;;;;;;;;;;;;;;5068403;28;19947;-73
2022/05/23 03:05:48;;;;;;;;;;;;;;;;;;5089623;28;19909;-73
2022/05/23 03:08:34;;;;;;;;;;;;;;;;;;5066531;28;19916;-73
2022/05/23 03:11:21;;;;;;;;;;;;;;;;;;5066324;28;19912;-74
2022/05/23 03:14:08;;;;;;;;;;;;;;;;;;5076176;28;19923;-74
2022/05/23 03:16:54;;;;;;;;;;;;;;;;;;5056154;28;19920;-73
2022/05/23 03:19:41;;;;;;;;;;;;;;;;;;5069073;28;19912;-74
2022/05/23 03:28:41;;;;;;;;;;;;;;;;;;5067561;28;19920;-75
2022/05/23 03:31:35;;;;;;;;;;;;;;;;;;5079333;28;19924;-74
2022/05/23 03:34:21;;;;;;;;;;;;;;;;;;5072615;28;19923;-75
2022/05/23 03:37:08;;;;;;;;;;;;;;;;;;5073403;28;19923;-74
2022/05/23 03:39:54;;;;;;;;;;;;;;;;;;5076167;27;19924;-74
2022/05/23 03:42:41;;;;;;;;;;;;;;;;;;5096171;28;20402;-74
2022/05/23 03:45:27;;;;;;;;;;;;;;;;;;5092396;28;20908;-74
2022/05/23 03:48:14;;;;;;;;;;;;;;;;;;5087673;28;19935;-75
2022/05/23 03:51:01;;;;;;;;;;;;;;;;;;5083623;28;20360;-74
2022/05/23 03:53:48;;;;;;;;;;;;;;;;;;5088024;28;19912;-74
2022/05/23 03:56:34;;;;;;;;;;;;;;;;;;5083022;28;19928;-73
2022/05/23 03:59:21;;;;;;;;;;;;;;;;;;5087450;28;19922;-73
2022/05/23 04:02:07;;;;;;;;;;;;;;;;;;5092515;28;19916;-74
2022/05/23 04:04:54;;;;;;;;;;;;;;;;;;5095305;28;20288;-74
2022/05/23 04:07:40;;;;;;;;;;;;;;;;;;5096548;28;19908;-74
2022/05/23 04:10:27;;;;;;;;;;;;;;;;;;5090857;28;20390;-74
2022/05/23 04:13:13;;;;;;;;;;;;;;;;;;5094336;28;19914;-75
2022/05/23 04:16:00;;;;;;;;;;;;;;;;;;5091108;28;19934;-75
2022/05/23 04:18:46;;;;;;;;;;;;;;;;;;5096944;28;19908;-74
2022/05/23 04:21:33;;;;;;;;;;;;;;;;;;5097737;28;19920;-74
2022/05/23 04:24:19;;;;;;;;;;;;;;;;;;5086776;28;19908;-74
2022/05/23 04:27:06;;;;;;;;;;;;;;;;;;5101759;27;19908;-74
2022/05/23 04:29:54;;;;;;;;;;;;;;;;;;5103914;27;19930;-73
2022/05/23 04:35:46;;;;;;;;;;;;;;;;;;5078115;28;19920;-74
2022/05/23 04:38:33;;;;;;;;;;;;;;;;;;5088781;28;19912;-75
2022/05/23 04:41:19;;;;;;;;;;;;;;;;;;5082034;28;19917;-74
2022/05/23 04:44:07;;;;;;;;;;;;;;;;;;5087541;28;20390;-74
2022/05/23 04:50:00;;;;;;;;;;;;;;;;;;5083318;28;19908;-74
2022/05/23 04:52:47;;;;;;;;;;;;;;;;;;5079832;28;19920;-73
2022/05/23 04:55:35;;;;;;;;;;;;;;;;;;5089507;28;19935;-73
2022/05/23 04:58:22;;;;;;;;;;;;;;;;;;5101286;28;19912;-73
2022/05/23 05:01:08;;;;;;;;;;;;;;;;;;5096177;28;19919;-73
2022/05/23 05:03:57;;;;;;;;;;;;;;;;;;5087152;28;20470;-74
2022/05/23 05:06:43;;;;;;;;;;;;;;;;;;5085890;28;19916;-74
2022/05/23 05:09:30;;;;;;;;;;;;;;;;;;5081145;28;19919;-74
2022/05/23 05:12:16;;;;;;;;;;;;;;;;;;5086656;28;19919;-74
2022/05/23 05:15:03;;;;;;;;;;;;;;;;;;5090652;28;19919;-73
2022/05/23 05:17:49;;;;;;;;;;;;;;;;;;5093259;28;19918;-73
2022/05/23 05:20:36;;;;;;;;;;;;;;;;;;5097816;28;19919;-75
2022/05/23 05:23:24;;;;;;;;;;;;;;;;;;5081468;28;19918;-74
2022/05/23 05:26:11;;;;;;;;;;;;;;;;;;5087788;28;19918;-74
2022/05/23 05:28:57;;;;;;;;;;;;;;;;;;5042497;28;1781577;-73
2022/05/23 05:31:44;;;;;;;;;;;;;;;;;;5087115;28;19914;-74
2022/05/23 05:34:30;;;;;;;;;;;;;;;;;;5090277;28;19915;-75
2022/05/23 05:37:17;;;;;;;;;;;;;;;;;;5087262;28;19935;-74
2022/05/23 05:40:03;;;;;;;;;;;;;;;;;;5086794;28;19916;-73
2022/05/23 05:42:50;;;;;;;;;;;;;;;;;;5077836;28;19913;-74
2022/05/23 05:45:37;;;;;;;;;;;;;;;;;;5080820;28;19923;-73
2022/05/23 05:48:23;;;;;;;;;;;;;;;;;;5083529;28;19923;-73
2022/05/23 05:51:10;;;;;;;;;;;;;;;;;;5101805;28;19930;-74
2022/05/23 05:53:56;;;;;;;;;;;;;;;;;;5087882;28;19915;-73
2022/05/23 05:56:46;;;;;;;;;;;;;;;;;;5090144;28;19943;-74
2022/05/23 05:59:32;;;;;;;;;;;;;;;;;;5089586;28;19919;-74
2022/05/23 06:02:19;;;;;;;;;;;;;;;;;;5091847;28;19912;-73
2022/05/23 06:05:05;;;;;;;;;;;;;;;;;;5089252;28;19907;-73
2022/05/23 06:14:02;;;;;;;;;;;;;;;;;;5087506;28;19918;-73
2022/05/23 06:16:49;;;;;;;;;;;;;;;;;;5086382;28;19931;-74
2022/05/23 06:19:35;;;;;;;;;;;;;;;;;;5107133;27;19911;-74
2022/05/23 06:22:22;;;;;;;;;;;;;;;;;;5098445;28;19922;-74
2022/05/23 06:25:08;;;;;;;;;;;;;;;;;;5089502;28;19908;-73
2022/05/23 06:27:55;;;;;;;;;;;;;;;;;;5087209;28;19908;-74
2022/05/23 06:30:42;;;;;;;;;;;;;;;;;;5091791;28;20277;-74
2022/05/23 06:33:28;;;;;;;;;;;;;;;;;;5087311;28;20519;-74
2022/05/23 06:36:15;;;;;;;;;;;;;;;;;;5093115;28;19920;-74
2022/05/23 06:39:01;;;;;;;;;;;;;;;;;;5092540;28;19908;-74
2022/05/23 06:41:48;;;;;;;;;;;;;;;;;;5091812;28;19916;-74
2022/05/23 06:44:34;;;;;;;;;;;;;;;;;;5088788;28;19919;-74
2022/05/23 06:47:21;;;;;;;;;;;;;;;;;;5079205;28;19923;-74
2022/05/23 06:50:07;;;;;;;;;;;;;;;;;;5088279;28;20403;-73
2022/05/23 06:52:54;;;;;;;;;;;;;;;;;;5083539;28;19912;-73
2022/05/23 06:55:40;;;;;;;;;;;;;;;;;;5088106;28;19920;-73
2022/05/23 06:58:27;;;;;;;;;;;;;;;;;;5083988;28;19911;-74
2022/05/23 07:01:14;;;;;;;;;;;;;;;;;;5086505;28;19908;-73
2022/05/23 07:04:01;;;;;;;;;;;;;;;;;;5086239;28;19919;-73
2022/05/23 07:12:59;;;;;;;;;;;;;;;;;;5087059;28;20367;-73
2022/05/23 07:15:48;;;;;;;;;;;;;;;;;;5084790;28;19926;-73
2022/05/23 07:18:35;;;;;;;;;;;;;;;;;;5090376;28;19922;-73
2022/05/23 07:21:21;;;;;;;;;;;;;;;;;;5087201;28;19922;-73
2022/05/23 07:24:08;;;;;;;;;;;;;;;;;;5090596;28;19912;-73
2022/05/23 07:26:54;;;;;;;;;;;;;;;;;;5087297;28;19907;-73
2022/05/23 07:29:41;;;;;;;;;;;;;;;;;;5079602;28;19924;-74
2022/05/23 07:32:29;;;;;;;;;;;;;;;;;;5072307;28;19918;-72
2022/05/23 07:35:19;;;;;;;;;;;;;;;;;;5084307;28;20287;-74
2022/05/23 07:38:15;;;;;;;;;;;;;;;;;;;;;
2022/05/23 07:41:02;;;;;;;;;;;;;;;;;;5079570;28;20348;-73
2022/05/23 07:43:49;;;;;;;;;;;;;;;;;;5088501;28;20303;-73
2022/05/23 07:46:35;;;;;;;;;;;;;;;;;;5086075;28;19912;-73
2022/05/23 07:49:22;;;;;;;;;;;;;;;;;;5087963;28;19923;-73
2022/05/23 07:52:08;;;;;;;;;;;;;;;;;;5060620;28;19913;-74
2022/05/23 08:01:05;;;;;;;;;;;;;;;;;;5088898;28;20399;-73
2022/05/23 08:03:52;;;;;;;;;;;;;;;;;;5086961;28;19914;-73
2022/05/23 08:06:38;;;;;;;;;;;;;;;;;;5087679;28;19912;-74
2022/05/23 08:09:25;;;;;;;;;;;;;;;;;;5100236;28;19915;-74
2022/05/23 08:12:11;;;;;;;;;;;;;;;;;;5103150;28;20399;-74
2022/05/23 08:14:58;;;;;;;;;;;;;;;;;;5077868;28;19947;-74
2022/05/23 08:17:44;;;;;;;;;;;;;;;;;;5086914;28;20288;-74
2022/05/23 08:20:31;;;;;;;;;;;;;;;;;;5082877;28;20375;-74
2022/05/23 08:23:17;;;;;;;;;;;;;;;;;;5092053;28;19912;-74
2022/05/23 08:26:04;;;;;;;;;;;;;;;;;;5089556;28;19964;-74
2022/05/23 08:28:50;;;;;;;;;;;;;;;;;;5091811;28;19923;-74
2022/05/23 08:31:37;;;;;;;;;;;;;;;;;;5091873;28;19994;-74
2022/05/23 08:34:23;;;;;;;;;;;;;;;;;;5081171;28;20667;-74
2022/05/23 08:37:10;;;;;;;;;;;;;;;;;;5089693;28;19923;-74
2022/05/23 08:39:56;;;;;;;;;;;;;;;;;;5089829;28;19919;-74
2022/05/23 08:42:42;;;;;;;;;;;;;;;;;;5090134;28;19916;-74
2022/05/23 08:45:34;;;;;;;;;;;;;;;;;;5087472;28;20363;-75
2022/05/23 08:48:20;;;;;;;;;;;;;;;;;;5090382;28;19908;-73
2022/05/23 08:51:10;;;;;;;;;;;;;;;;;;5092034;28;20481;-73
2022/05/23 08:53:57;;;;;;;;;;;;;;;;;;5089590;28;20283;-73
2022/05/23 08:56:43;;;;;;;;;;;;;;;;;;5079706;28;19927;-73
2022/05/23 08:59:31;;;;;;;;;;;;;;;;;;5092372;28;20271;-73
2022/05/23 09:02:17;;;;;;;;;;;;;;;;;;5087687;28;19939;-72
2022/05/23 09:05:03;;;;;;;;;;;;;;;;;;5087386;28;19912;-73
2022/05/23 09:07:50;;;;;;;;;;;;;;;;;;5085989;28;19924;-72
2022/05/23 09:10:37;;;;;;;;;;;;;;;;;;5090276;28;19943;-72
2022/05/23 09:13:23;;;;;;;;;;;;;;;;;;5089857;28;19912;-73
2022/05/23 09:16:10;;;;;;;;;;;;;;;;;;5086004;28;19928;-73
2022/05/23 09:18:56;;;;;;;;;;;;;;;;;;5079939;28;19931;-73
2022/05/23 09:24:48;;;;;;;;;;;;;;;;;;5089316;28;19934;-73
2022/05/23 09:27:37;;;;;;;;;;;;;;;;;;5096514;28;20287;-72
2022/05/23 09:30:26;;;;;;;;;;;;;;;;;;5083947;28;19943;-72
2022/05/23 09:33:16;;;;;;;;;;;;;;;;;;5091739;28;19938;-72
2022/05/23 09:36:02;;;;;;;;;;;;;;;;;;5090282;28;19920;-72
2022/05/23 09:38:49;;;;;;;;;;;;;;;;;;5089809;28;19909;-72
2022/05/23 09:47:45;;;;;;;;;;;;;;;;;;5089215;28;19912;-72
2022/05/23 09:50:32;;;;;;;;;;;;;;;;;;5089055;28;19908;-73
2022/05/23 09:53:18;;;;;;;;;;;;;;;;;;5106098;28;19983;-73
2022/05/23 09:56:05;;;;;;;;;;;;;;;;;;5096716;28;20320;-74
2022/05/23 09:58:52;;;;;;;;;;;;;;;;;;5087621;28;19928;-73
2022/05/23 10:01:38;;;;;;;;;;;;;;;;;;5102561;27;20805;-72
2022/05/23 10:04:25;;;;;;;;;;;;;;;;;;5086714;28;19919;-72
2022/05/23 10:07:11;;;;;;;;;;;;;;;;;;5081554;28;20279;-72
2022/05/23 10:09:58;;;;;;;;;;;;;;;;;;5087051;28;19919;-73
2022/05/23 10:12:44;;;;;;;;;;;;;;;;;;5090520;28;19912;-74
2022/05/23 10:15:32;;;;;;;;;;;;;;;;;;5086317;28;19922;-73
2022/05/23 10:18:19;;;;;;;;;;;;;;;;;;5081525;28;20285;-73
2022/05/23 10:21:05;;;;;;;;;;;;;;;;;;5108907;27;19908;-73
2022/05/23 10:23:52;;;;;;;;;;;;;;;;;;5092342;28;20430;-73
2022/05/23 10:26:38;;;;;;;;;;;;;;;;;;5086557;28;20079;-73
2022/05/23 10:29:24;;;;;;;;;;;;;;;;;;5082614;28;20283;-73
2022/05/23 10:32:11;;;;;;;;;;;;;;;;;;5076391;28;19909;-74
2022/05/23 10:34:57;;;;;;;;;;;;;;;;;;5093582;28;19939;-74
2022/05/23 10:37:45;;;;;;;;;;;;;;;;;;5087379;28;19916;-74
2022/05/23 10:43:37;;;;;;;;;;;;;;;;;;5082852;28;19912;-73
2022/05/23 10:46:24;;;;;;;;;;;;;;;;;;5086351;28;19919;-73
2022/05/23 10:49:10;;;;;;;;;;;;;;;;;;5080164;28;20407;-73
2022/05/23 10:51:56;;;;;;;;;;;;;;;;;;5083781;28;19934;-73
2022/05/23 10:54:43;;;;;;;;;;;;;;;;;;5096227;28;19918;-73
2022/05/23 10:57:29;;;;;;;;;;;;;;;;;;5095552;28;19927;-73
2022/05/23 11:00:16;;;;;;;;;;;;;;;;;;5088883;28;19908;-74
2022/05/23 11:03:03;;;;;;;;;;;;;;;;;;5087261;28;19912;-74
2022/05/23 11:05:49;;;;;;;;;;;;;;;;;;5099587;28;20459;-72
2022/05/23 11:08:36;;;;;;;;;;;;;;;;;;5087588;28;19915;-73
2022/05/23 11:11:22;;;;;;;;;;;;;;;;;;5087002;28;19916;-72
2022/05/23 11:14:09;;;;;;;;;;;;;;;;;;5088070;28;19912;-73
2022/05/23 11:16:55;;;;;;;;;;;;;;;;;;5081591;28;19916;-72
2022/05/23 11:19:42;;;;;;;;;;;;;;;;;;5084967;28;19911;-73
2022/05/23 11:22:28;;;;;;;;;;;;;;;;;;5082870;28;19909;-73
2022/05/23 11:25:16;;;;;;;;;;;;;;;;;;5095160;28;19912;-73
2022/05/23 11:34:13;;;;;;;;;;;;;;;;;;5094395;28;20280;-72
2022/05/23 11:37:09;;;;;;;;;;;;;;;;;;5088190;28;19923;-73
2022/05/23 11:39:56;;;;;;;;;;;;;;;;;;5085612;28;19919;-73
2022/05/23 11:42:42;;;;;;;;;;;;;;;;;;5080691;28;19936;-73
2022/05/23 11:48:36;;;;;;;;;;;;;;;;;;5093001;28;19909;-73
2022/05/23 11:51:23;;;;;;;;;;;;;;;;;;5092561;28;19916;-73
2022/05/23 11:54:09;;;;;;;;;;;;;;;;;;5089747;28;19916;-73
2022/05/23 11:56:56;;;;;;;;;;;;;;;;;;5086453;28;20379;-73
2022/05/23 11:59:42;;;;;;;;;;;;;;;;;;5096204;28;19916;-73
2022/05/23 12:02:29;;;;;;;;;;;;;;;;;;5097998;28;19912;-73
2022/05/23 12:05:15;;;;;;;;;;;;;;;;;;5086406;28;19908;-72
2022/05/23 12:08:02;;;;;;;;;;;;;;;;;;5085228;28;19912;-73
2022/05/23 12:10:48;;;;;;;;;;;;;;;;;;5091765;28;20603;-73
2022/05/23 12:13:35;;;;;;;;;;;;;;;;;;5091346;28;19918;-74
2022/05/23 12:16:26;;;;;;;;;;;;;;;;;;5090635;28;20397;-73
2022/05/23 12:19:13;;;;;;;;;;;;;;;;;;5089544;28;19916;-73
2022/05/23 12:21:59;;;;;;;;;;;;;;;;;;5090593;28;19915;-74
2022/05/23 12:24:46;;;;;;;;;;;;;;;;;;5090930;28;19908;-73
2022/05/23 12:27:33;;;;;;;;;;;;;;;;;;5088666;28;19908;-73
2022/05/23 12:30:24;;;;;;;;;;;;;;;;;;5084433;28;19931;-73
2022/05/23 12:33:10;;;;;;;;;;;;;;;;;;5102624;28;19908;-73
2022/05/23 12:35:57;;;;;;;;;;;;;;;;;;5090432;28;19916;-73
2022/05/23 12:38:43;;;;;;;;;;;;;;;;;;5089541;28;19919;-73
2022/05/23 12:41:30;;;;;;;;;;;;;;;;;;5080480;28;19918;-73
2022/05/23 12:44:16;;;;;;;;;;;;;;;;;;5086891;28;20252;-74
2022/05/23 12:47:04;;;;;;;;;;;;;;;;;;5089195;28;19916;-73
2022/05/23 12:49:51;;;;;;;;;;;;;;;;;;5085898;28;19908;-73
2022/05/23 12:52:37;;;;;;;;;;;;;;;;;;5096705;28;19954;-73
2022/05/23 12:55:23;;;;;;;;;;;;;;;;;;5092390;28;19912;-73
2022/05/23 12:58:10;;;;;;;;;;;;;;;;;;5086194;28;20371;-72
2022/05/23 13:00:58;;;;;;;;;;;;;;;;;;5086856;28;19916;-72
2022/05/23 13:03:44;;;;;;;;;;;;;;;;;;5098484;28;19919;-72
2022/05/23 13:06:31;;;;;;;;;;;;;;;;;;5089459;28;19915;-71
2022/05/23 13:09:20;;;;;;;;;;;;;;;;;;5090473;28;20523;-72
2022/05/23 13:12:07;;;;;;;;;;;;;;;;;;5086185;28;20368;-73
2022/05/23 13:14:53;;;;;;;;;;;;;;;;;;5090617;28;20382;-73
2022/05/23 13:17:40;;;;;;;;;;;;;;;;;;5091584;28;20364;-73
2022/05/23 13:23:33;;;;;;;;;;;;;;;;;;5089077;28;19912;-72
2022/05/23 13:26:20;;;;;;;;;;;;;;;;;;5089190;28;19930;-73
2022/05/23 13:29:06;;;;;;;;;;;;;;;;;;5090483;28;19923;-73
2022/05/23 13:31:53;;;;;;;;;;;;;;;;;;5088760;28;19912;-73
2022/05/23 13:34:39;;;;;;;;;;;;;;;;;;5089456;28;20368;-72
2022/05/23 13:37:26;;;;;;;;;;;;;;;;;;5088005;28;19916;-73
2022/05/23 13:40:14;;;;;;;;;;;;;;;;;;5097990;28;19912;-73
2022/05/23 13:43:00;;;;;;;;;;;;;;;;;;5089873;28;19908;-73
2022/05/23 13:45:47;;;;;;;;;;;;;;;;;;5087961;28;19919;-73
2022/05/23 13:48:33;;;;;;;;;;;;;;;;;;5083402;28;19923;-73
2022/05/23 13:51:20;;;;;;;;;;;;;;;;;;5090403;28;19913;-73
2022/05/23 13:54:06;;;;;;;;;;;;;;;;;;5090988;28;19908;-73
2022/05/23 13:56:53;;;;;;;;;;;;;;;;;;5107301;27;20383;-72
2022/05/23 13:59:39;;;;;;;;;;;;;;;;;;5090483;28;19923;-72
2022/05/23 14:02:25;;;;;;;;;;;;;;;;;;5093461;28;20350;-73
2022/05/23 14:05:12;;;;;;;;;;;;;;;;;;5080549;28;19919;-72
2022/05/23 14:07:58;;;;;;;;;;;;;;;;;;5089149;28;19923;-72
2022/05/23 14:10:45;;;;;;;;;;;;;;;;;;5087534;28;19919;-72
2022/05/23 14:13:32;;;;;;;;;;;;;;;;;;5087239;28;20386;-74
2022/05/23 14:16:21;;;;;;;;;;;;;;;;;;5098890;28;19924;-78
2022/05/23 14:19:07;;;;;;;;;;;;;;;;;;5100850;28;20447;-73
2022/05/23 14:21:54;;;;;;;;;;;;;;;;;;5087344;28;19908;-75
2022/05/23 14:24:40;;;;;;;;;;;;;;;;;;5084730;28;19912;-74
2022/05/23 14:27:27;;;;;;;;;;;;;;;;;;5086905;28;19971;-73
2022/05/23 14:30:14;;;;;;;;;;;;;;;;;;5080900;28;19931;-75
2022/05/23 14:33:00;;;;;;;;;;;;;;;;;;5087559;28;19908;-75
2022/05/23 14:35:47;;;;;;;;;;;;;;;;;;5089746;28;20386;-74
2022/05/23 14:38:33;;;;;;;;;;;;;;;;;;5103295;27;19912;-75
2022/05/23 14:41:20;;;;;;;;;;;;;;;;;;5086729;28;19919;-75
2022/05/23 14:44:06;;;;;;;;;;;;;;;;;;5088252;28;19916;-75
2022/05/23 14:46:53;;;;;;;;;;;;;;;;;;5093881;28;19915;-75
2022/05/23 14:49:39;;;;;;;;;;;;;;;;;;5088117;28;19912;-75
2022/05/23 14:52:26;;;;;;;;;;;;;;;;;;5089572;28;19912;-75
2022/05/23 14:55:19;;;;;;;;;;;;;;;;;;5079069;28;19916;-75
2022/05/23 15:01:10;;;;;;;;;;;;;;;;;;5078226;28;19938;-75
2022/05/23 15:03:57;;;;;;;;;;;;;;;;;;5086969;28;19913;-75
2022/05/23 15:06:43;;;;;;;;;;;;;;;;;;5086027;28;19918;-75
2022/05/23 15:09:30;;;;;;;;;;;;;;;;;;5087322;28;20378;-75
2022/05/23 15:12:16;;;;;;;;;;;;;;;;;;5084419;28;20392;-75
2022/05/23 15:15:03;;;;;;;;;;;;;;;;;;5083909;28;19919;-75
2022/05/23 15:17:49;;;;;;;;;;;;;;;;;;5085685;28;20273;-75
2022/05/23 15:20:35;;;;;;;;;;;;;;;;;;5085298;28;19914;-74
2022/05/23 15:23:22;;;;;;;;;;;;;;;;;;5085843;28;20311;-74
2022/05/23 15:26:11;;;;;;;;;;;;;;;;;;5099173;28;19931;-75
2022/05/23 15:28:57;;;;;;;;;;;;;;;;;;5086718;28;20021;-75
2022/05/23 15:31:44;;;;;;;;;;;;;;;;;;5080365;28;19927;-74
2022/05/23 15:34:30;;;;;;;;;;;;;;;;;;5090453;28;19919;-74
2022/05/23 15:37:17;;;;;;;;;;;;;;;;;;5090605;28;19916;-75
2022/05/23 15:40:03;;;;;;;;;;;;;;;;;;5096635;28;19923;-74
2022/05/23 15:42:50;;;;;;;;;;;;;;;;;;5094115;28;20450;-76
2022/05/23 15:45:37;;;;;;;;;;;;;;;;;;5092962;28;19918;-75
2022/05/23 15:48:23;;;;;;;;;;;;;;;;;;5090599;28;19923;-75
2022/05/23 15:51:12;;;;;;;;;;;;;;;;;;5091930;28;19908;-75
2022/05/23 15:53:58;;;;;;;;;;;;;;;;;;5089488;28;19935;-74
2022/05/23 15:56:45;;;;;;;;;;;;;;;;;;5084812;28;20399;-78
2022/05/23 15:59:32;;;;;;;;;;;;;;;;;;5101542;27;19912;-74
2022/05/23 16:02:18;;;;;;;;;;;;;;;;;;5089546;28;19977;-76
2022/05/23 16:05:05;;;;;;;;;;;;;;;;;;5092090;28;19935;-73
2022/05/23 16:07:51;;;;;;;;;;;;;;;;;;5100381;28;19916;-74
2022/05/23 16:10:38;;;;;;;;;;;;;;;;;;5088045;28;19912;-74
2022/05/23 16:13:24;;;;;;;;;;;;;;;;;;5091433;28;20261;-73
2022/05/23 16:16:11;;;;;;;;;;;;;;;;;;5097239;28;19929;-74
2022/05/23 16:18:58;;;;;;;;;;;;;;;;;;5084569;28;19918;-75
2022/05/23 16:21:44;;;;;;;;;;;;;;;;;;5085124;28;19912;-74
2022/05/23 16:24:31;;;;;;;;;;;;;;;;;;5101244;27;19915;-75
2022/05/23 16:27:17;;;;;;;;;;;;;;;;;;5087765;28;19913;-75
2022/05/23 16:30:04;;;;;;;;;;;;;;;;;;5087689;28;20392;-76
2022/05/23 16:39:01;;;;;;;;;;;;;;;;;;5087265;28;19912;-74
2022/05/23 16:41:47;;;;;;;;;;;;;;;;;;5088267;28;19913;-77
2022/05/23 16:44:34;;;;;;;;;;;;;;;;;;5093681;28;19916;-76
2022/05/23 16:47:23;;;;;;;;;;;;;;;;;;5089692;28;19949;-75
2022/05/23 16:50:10;;;;;;;;;;;;;;;;;;5093463;28;19938;-75
2022/05/23 16:52:56;;;;;;;;;;;;;;;;;;5080919;28;19908;-75
2022/05/23 16:55:43;;;;;;;;;;;;;;;;;;5090115;28;20405;-74
2022/05/23 16:58:30;;;;;;;;;;;;;;;;;;5097958;28;19927;-75
2022/05/23 17:01:17;;;;;;;;;;;;;;;;;;5093515;28;19919;-75
2022/05/23 17:04:03;;;;;;;;;;;;;;;;;;5097619;28;19920;-75
2022/05/23 17:06:50;;;;;;;;;;;;;;;;;;5086500;28;19924;-76
2022/05/23 17:09:36;;;;;;;;;;;;;;;;;;5089806;28;20394;-76
2022/05/23 17:12:23;;;;;;;;;;;;;;;;;;5087013;28;19934;-75
2022/05/23 17:15:09;;;;;;;;;;;;;;;;;;5092249;28;19922;-77
2022/05/23 17:17:58;;;;;;;;;;;;;;;;;;5089498;28;19916;-76
2022/05/23 17:20:45;;;;;;;;;;;;;;;;;;5089706;28;19918;-75
2022/05/23 17:23:32;;;;;;;;;;;;;;;;;;5087686;28;19927;-75
2022/05/23 17:26:18;;;;;;;;;;;;;;;;;;5089014;28;20248;-76
2022/05/23 17:29:05;;;;;;;;;;;;;;;;;;5089254;28;20375;-75
2022/05/23 17:31:51;;;;;;;;;;;;;;;;;;5084927;28;19942;-74
2022/05/23 17:34:38;;;;;;;;;;;;;;;;;;5085089;28;19962;-75
2022/05/23 17:37:24;;;;;;;;;;;;;;;;;;5101417;28;19920;-75
2022/05/23 17:40:11;;;;;;;;;;;;;;;;;;5093385;28;19908;-76
2022/05/23 17:42:57;;;;;;;;;;;;;;;;;;5084422;28;19912;-75
2022/05/23 17:45:44;;;;;;;;;;;;;;;;;;5087064;28;19919;-77
2022/05/23 17:48:30;;;;;;;;;;;;;;;;;;5085849;28;19916;-76
2022/05/23 17:51:17;;;;;;;;;;;;;;;;;;5087300;28;20318;-75
2022/05/23 17:54:03;;;;;;;;;;;;;;;;;;5087153;28;19931;-75
2022/05/23 17:56:50;;;;;;;;;;;;;;;;;;5081905;28;20032;-74
2022/05/23 17:59:36;;;;;;;;;;;;;;;;;;5096296;28;20293;-74
2022/05/23 18:02:23;;;;;;;;;;;;;;;;;;5112339;27;19919;-75
2022/05/23 18:05:11;;;;;;;;;;;;;;;;;;5091493;28;19916;-75
2022/05/23 18:08:02;;;;;;;;;;;;;;;;;;5085220;28;19927;-75
2022/05/23 18:10:48;;;;;;;;;;;;;;;;;;5089627;28;19912;-75
2022/05/23 18:19:45;;;;;;;;;;;;;;;;;;5099637;28;19908;-74
2022/05/23 18:22:32;;;;;;;;;;;;;;;;;;5085602;28;19923;-75
2022/05/23 18:25:18;;;;;;;;;;;;;;;;;;5089990;28;20294;-75
2022/05/23 18:28:05;;;;;;;;;;;;;;;;;;5084881;28;19912;-75
2022/05/23 18:30:52;;;;;;;;;;;;;;;;;;5093131;28;20056;-75
2022/05/23 18:33:38;;;;;;;;;;;;;;;;;;5076575;28;19916;-75
2022/05/23 18:36:24;;;;;;;;;;;;;;;;;;5081058;28;19920;-75
2022/05/23 18:39:12;;;;;;;;;;;;;;;;;;5085377;28;19927;-76
2022/05/23 18:41:59;;;;;;;;;;;;;;;;;;5089851;28;19908;-77
2022/05/23 18:44:45;;;;;;;;;;;;;;;;;;5091978;28;20019;-76
2022/05/23 18:47:32;;;;;;;;;;;;;;;;;;5087557;28;19911;-74
2022/05/23 18:50:18;;;;;;;;;;;;;;;;;;5094795;28;20459;-74
2022/05/23 18:53:06;;;;;;;;;;;;;;;;;;5090424;28;19919;-74
2022/05/23 18:55:52;;;;;;;;;;;;;;;;;;5102695;27;19916;-76
2022/05/23 18:58:42;;;;;;;;;;;;;;;;;;5087298;28;19925;-77
2022/05/23 19:01:29;;;;;;;;;;;;;;;;;;5091986;28;19911;-77
2022/05/23 19:04:15;;;;;;;;;;;;;;;;;;5092564;28;19908;-76
2022/05/23 19:07:02;;;;;;;;;;;;;;;;;;5088866;28;19931;-75
2022/05/23 19:09:48;;;;;;;;;;;;;;;;;;5080083;28;19912;-76
2022/05/23 19:12:35;;;;;;;;;;;;;;;;;;5086837;28;19919;-76
2022/05/23 19:15:21;;;;;;;;;;;;;;;;;;5087774;28;20298;-76
2022/05/23 19:18:07;;;;;;;;;;;;;;;;;;5085505;28;19917;-76
2022/05/23 19:20:57;;;;;;;;;;;;;;;;;;5082111;28;19939;-76
2022/05/23 19:23:43;;;;;;;;;;;;;;;;;;5085896;28;19908;-75
2022/05/23 19:26:30;;;;;;;;;;;;;;;;;;5089213;28;19918;-76
2022/05/23 19:29:16;;;;;;;;;;;;;;;;;;5091566;28;19908;-76
2022/05/23 19:32:03;;;;;;;;;;;;;;;;;;5081298;28;19916;-77
2022/05/23 19:34:49;;;;;;;;;;;;;;;;;;5087665;28;20383;-75
2022/05/23 19:37:36;;;;;;;;;;;;;;;;;;5086869;28;19924;-76
2022/05/23 19:40:22;;;;;;;;;;;;;;;;;;5086598;28;20660;-76
2022/05/23 19:43:09;;;;;;;;;;;;;;;;;;5089652;28;19912;-75
2022/05/23 19:45:59;;;;;;;;;;;;;;;;;;5080260;28;19928;-75
2022/05/23 19:48:45;;;;;;;;;;;;;;;;;;5090239;28;19916;-76
2022/05/23 19:51:32;;;;;;;;;;;;;;;;;;5072374;28;20296;-76
2022/05/23 19:54:18;;;;;;;;;;;;;;;;;;5093029;28;19912;-75
2022/05/23 19:57:06;;;;;;;;;;;;;;;;;;5093126;28;19927;-75
2022/05/23 19:59:52;;;;;;;;;;;;;;;;;;5086155;28;19916;-75
2022/05/23 20:08:49;;;;;;;;;;;;;;;;;;5091137;28;19920;-75
2022/05/23 20:11:36;;;;;;;;;;;;;;;;;;5084052;28;19912;-75
2022/05/23 20:15:21;;;;;;;;;;;;;;;;;;5085423;28;19935;-74
2022/05/23 20:17:29;;;;;;;;;;;;;;;;;;5089214;28;19927;-75
2022/05/23 20:20:15;;;;;;;;;;;;;;;;;;5089588;28;19916;-76
2022/05/23 20:23:02;;;;;;;;;;;;;;;;;;5081091;28;19919;-74